עמוד ראשי
METAR-TAF:

METAR-TAF

שדות תעופה :

Cape Romanzof, אלסקה, ארצות הברית

קו רוחב: 61-47N, קו אורך: 166-02W, גובה: 139מטר

תצפית מזג אוויר נוכחית

הדו"ח נערך לפני 40דקות, בשעה 18:55 UTC
רוח רגועה
טמפרטורת 10 צלסיוס
לחות 100%
לחץ 1016 hPa
ראות: 16.1קילומטר
מעט עננים בגובה 1700רגל
מעט עננים בגובה 3900רגל
עננים בינוניים בגובה 5500רגל

METAR: PACZ 201855Z AUTO 00000KT 10SM FEW017 FEW039 BKN055 10/10 A3001 RMK AO2 SLP164 T00950097

זמן: 11:35 (19:35 UTC)


TAF: חסר

תצפיות ותחזיות מזג אוויר לגבי יותר מ- 4,000 שדות תעופה ברחבי העולם. דוחות METAR ו- TAF.

התחנות הזמינות מסומנות בנקודות צהובות ואדומות על גבי המפה.

העבר את העכבר לנקודה הצבעונית על מנת לראות את שם התחנה.

לאחר מכן, לחץ כדי לראות את תוכן ואת תחזיות מזג האוויר.

כדי לשנות את המפה: לחץ על הכפתורים הירוקים עם הפלוס השחור כדי להתקרב; על הכפתור הירוק עם המקף כדי להתרחק; או בחיצים הירוקים למפות סמוכות.


METAR-TAF: